logo
Rechercher aéroport 
image banner adimage banner adimage banner ad
image banner ad

MDLR - Casa De Campo La Romana Intl

Situé à La Romana, Dominican Republic

ICAO - MDLR, IATA - LRM

Données fournies par Airmate  

Information générale

Coordonnées: N18°27'9" W68°54'41"
Élévation : 240 feet MSL.
 
Voir autres Aéroports à La Romana Province

Données opérationnelles

Special qualification required
Heure actuelle UTC:
Heure actuelle locale:
Météo
METAR: MDLR 130100Z 09006KT 9999 SCT016 SCT070 25/24 Q1018
TAF: TAF MDLR 122200Z 1300/1400 09010KT 9999 SCT020 SCT070 PROB30 1300/1306 7000 -TSRA FEW016CB BKN018 SCT070 BECMG 1301/1303 00000KT
Voir NOTAMs / SUP AIP / TFR affectant cet aéroport [VIEW]
Fréquences de communication: [VIEW]

Pistes:

Identifiant RWYQFULongueur (ft)Largeur (ft)SurfaceLDA (ft)
1197°9678148ASP
29277°9678148ASP

Coordonnées de l'aéroport

Adresse: La Romana Dominican Republic

Vue satellite de MDLR